Nesenie raksti

Ziņas

Par Gliding.lv

Gliding.lv ir interneta vietne par planieriem un planierismu. Šeit būs atrodama informācija par iespējām pamēģināt, iesaistīties un organizēt planierisma aktivitātes. Izmanto Gliding.lv forumu, ja Tev ir kāda tēma diskusijai vai jautājums. Gliding.lv merķis ir informēt un apvienot planierisma interesentus, nodrošinot un apmainoties ar aktuālāko un arī bijušo. Lidojam!

Laiks Rīgā
4°
overcast clouds
mitrums: 86%
vējš: 7m/s DDA
Aug 5 • Zem 5
6°
Svē
1°
Pir
0°
Otr
-1°
Tre
Meteo-dati no OpenWeatherMap

METAR

EVRA 050050Z 16014KT 9999 OVC012 04/02 Q1013 R18/190095 NOSIG

EVLA 050050Z AUTO 14010KT 9999 FEW059/// SCT075/// BKN100/// 04/02 Q1008

EVVA 050050Z AUTO 14010KT 9999 OVC018 04/02 Q1009

Nesenie raksti

Pāriet uz rīkjoslu